Stover, MO

6:39 AM CDT on August 01, 2014 (GMT -0500)
cole camp Lincoln (KMOCOLEC2) Elev 905 ft | 38.40 °N, 93.20 °W | Change Station

Current weather conditions updated 1 minute ago

Partly Cloudy
Partly Cloudy
63.3 °F
Feels Like 63.3 °F
N
0.0
Wind Variable Wind from SSW
Gusts 0.0 mph

Today is forecast to be nearly the same temperature as yesterday.

Today
High -- | Low -- °F
--% Chance of Precip.
Yesterday
High -- | Low -- °F
Precip. -- in
6:13 AM 8:22 PM
Waxing Crescent, 26% visible
Pressure 30.06 in
Visibility 10.0 miles
Clouds Few 7000 ft
Dew Point 62 °F
Humidity 96%
Rainfall 0.00 in
Snow Depth Not available.
UV 0 out of 12
Pollen 6.80 out of 12
Air Quality Not available.
Flu Activity Not available.
METAR KDMO 011053Z AUTO 20003KT 10SM FEW070 17/14 A3008 RMK AO2 SLP178 T01670139

More Conditions Fewer Conditions

Pressure 30.06 in
Visibility 10.0 miles
Clouds Few 7000 ft
Dew Point 62 °F
Humidity 96%
Rainfall 0.00 in
Snow Depth Not available.
UV 0 out of 12
Pollen 6.80 out of 12
Air Quality Not available.
Flu Activity Not available.
METAR KDMO 011053Z AUTO 20003KT 10SM FEW070 17/14 A3008 RMK AO2 SLP178 T01670139

More Conditions Fewer Conditions

10-Day Weather Forecast

Almanac

Astronomy

Aug. 01, 2014 Rise Set
Actual Time 6:13 AM CDT 8:22 PM CDT
Civil Twilight 5:44 AM CDT 8:51 PM CDT
Nautical Twilight 5:08 AM CDT 9:27 PM CDT
Astronomical Twilight 4:29 AM CDT 10:06 PM CDT
Moon 11:33 AM CDT 11:11 PM CDT
Length of Visible Light 15h 06m
Length of Day
14h 08m
Tomorrow will be 1m 53s shorter.
Waxing Crescent, 26% of the Moon is Illuminated
Today
Waxing Crescent
Aug 3
First Quarter
Aug 10
Full
Aug 17
Last Quarter
Aug 25
New

Today's Extremes

State Highs State Lows

Community

WunderPhotos

Upload Photos

1,739,538 photos uploaded!

Nearby

Snow Depth

Station Depth Elevation
No new snow has been reported.

Earthquake Activity

City Distance Mag. Time & Date
No recent earthquake activity has been reported nearby.
Minimum magnitude displayed is 2.5.

Coastal Water Temperatures

Place Temperature
No Stations Reporting

Nearby Weather Stations

Station Location Temp. Dew Point Humidity Wind Precip. Elev Updated Type
cole camp Lincoln, Cole Camp, MO 63.3 °F 62 °F 96% SSW  at  0.0 mph 0.00 in / hr 905 ft 6:38 AM CDT Normal
Beginning of Indian Creek, Barnett, MO 55.0 °F 55 °F 99% ENE  at  0.0 mph - / hr 679 ft 6:28 AM CDT Normal
MesoWest OTRVLE , Syracuse, MO 59 °F - - North  at  - 0.00 in / hr 849 ft 4:05 AM CDT MADIS
MesoWest CLARKS , Clarksburg, MO 63 °F - - North  at  - 0.00 in / hr 910 ft 3:50 AM CDT MADIS
Eldon, MO 64.4 °F 64 °F 99% South  at  0.7 mph 0.00 in / hr 918 ft 6:39 AM CDT Rapid Fire
MesoWest SEDLIA , Sedalia, MO 71 °F - - North  at  - 0.00 in / hr 823 ft 4:35 AM CDT MADIS
Sedalia, MO 61.1 °F 59 °F 93% SSW  at  0.0 mph 0.00 in / hr 837 ft 6:39 AM CDT Rapid Fire
Lake of the Ozarks, Sunrise Beach, MO 66.7 °F 66 °F 98% South  at  0.0 mph - / hr 668 ft 7:20 AM EDT Normal

Show More Stations Show Fewer Stations